AirNav   Duncan Aviation - Near you to keep you flying
 
 937 users online  

8D9 Howard Municipal Airport
Howard, South Dakota, USA

GOING TO HOWARD?


FAA INFORMATION EFFECTIVE 19 MAY 2022

Location

FAA Identifier: 8D9
Lat/Long: 44-01-59.8906N 097-32-01.2300W
44-01.998177N 097-32.020500W
44.0333029,-97.5336750
(estimated)
Elevation: 1586 ft. / 483.4 m (surveyed)
Variation: 07E (1985)
From city: 1 mile N of HOWARD, SD
Time zone: UTC -5 (UTC -6 during Standard Time)
Zip code: 57349

Airport Operations

Airport use: Open to the public
Activation date: 09/1947
Control tower: no
ARTCC: MINNEAPOLIS CENTER
FSS: HURON FLIGHT SERVICE STATION
NOTAMs facility: HON (NOTAM-D service available)
Attendance: UNATNDD
Wind indicator: lighted
Segmented circle: no
Lights: ACTVT LIRL RWY 13/31 - CTAF.
Beacon: white-green (lighted land airport)
Operates sunset to sunrise.

Airport Communications

CTAF: 122.9
WX AWOS-3 at MDS (19 nm E): 118.35 (605-427-9380)

Nearby radio navigation aids

VOR radial/distance  VOR name  Freq  Var
MHEr051/26.7MITCHELL VOR/DME109.2004E
FSDr296/39.9SIOUX FALLS VORTAC115.0009E

Airport Services

Parking: tiedowns
Airframe service: NONE
Powerplant service: NONE
Bottled oxygen: NONE
Bulk oxygen: NONE

Runway Information

Runway 13/31

Dimensions: 2656 x 150 ft. / 810 x 46 m
Surface: turf, in fair condition
Runway edge lights: low intensity
RUNWAY 13  RUNWAY 31
Latitude: 44-02.171167N44-01.841833N
Longitude: 097-32.299167W097-31.900667W
Elevation: 1562.0 ft.1582.0 ft.
Traffic pattern: leftleft
Touchdown point: yes, no lightsyes, no lights
Obstructions: 14 ft. road, 300 ft. from runway, 21:1 slope to clearnone

Runway 18/36

Dimensions: 1952 x 150 ft. / 595 x 46 m
Surface: turf, in fair condition
Runway edge markings: RWY 18 /36 MKD WITH WHITE BLACK TIPPED MKR CONES.
RUNWAY 18  RUNWAY 36
Latitude: 44-02.146333N44-01.827000N
Longitude: 097-31.886667W097-31.935000W
Elevation: 1586.0 ft.1583.0 ft.
Traffic pattern: leftleft
Touchdown point: yes, no lightsyes, no lights
Obstructions: 28 ft. pline, 737 ft. from runway, 26:1 slope to clear4 ft. fence, 80 ft. from runway, 20:1 slope to clear

Airport Ownership and Management from official FAA records

Ownership: Publicly-owned
Owner: CITY OF HOWARD
PO BOX 705
HOWARD, SD 57349
Phone 605-772-4391
Manager: TIM CLARKE
PO BOX 145
HOWARD, SD 57349
Phone 605-940-9217

Airport Operational Statistics

Aircraft based on the field: 4
Single engine airplanes: 4
    
Aircraft operations: avg 60/month *
92% local general aviation
8% transient general aviation
* for 12-month period ending 14 May 2020

Additional Remarks

RWY 13 4+ FT FENCE 45 FT R 300 FT FM THR & 125 FT R 240 FT FM THR.
WILDLIFE ON AND INVOF ARPT.
RWYS CLSD DURNG WINTER MONTHS.
FOR CD CTC MINNEAPOLIS ARTCC AT 651-463-5588.

Instrument Procedures

There are no published instrument procedures at 8D9.

Some nearby airports with instrument procedures:

KMDS - Madison Municipal Airport (19 nm E)
KMHE - Mitchell Municipal Airport (27 nm SW)
KBKX - Brookings Regional Airport (35 nm NE)
KHON - Huron Regional Airport (37 nm NW)
4X4 - Wessington Springs Airport (43 nm W)
 
Loc | Ops | Rwys | IFR | FBO | Links
Com | Nav | Svcs | Stats | Notes

Bismarck Aero Center
AirBoss

 
Area around 8D9 (Howard Municipal Airport)
 
Road maps at: MapQuest Bing Google
 
Aerial photo
WARNING: Photo may not be current or correct
Aerial photo of 8D9 (Howard Municipal Airport)
Photo by Steve Hamilton

Do you have a better or more recent aerial photo of Howard Municipal Airport that you would like to share? If so, please send us your photo.

 
Sectional chart

 
Airport distance calculator
Flying to Howard Municipal Airport? Find the distance to fly.

From to 8D9

Sunrise and sunset
Times for 28-May-2022
 Local
(UTC-5)
 Zulu
(UTC)
Morning civil twilight05:1810:18
Sunrise05:5310:53
Sunset21:0102:01
Evening civil twilight21:3602:36

Current date and time
Zulu (UTC)  28-May-2022 13:08:36
Local (UTC-5)  28-May-2022 08:08:36
 
METAR
KMDS 
19nm E 
281255Z AUTO 21012G20KT 10SM CLR 20/17 A2958 RMK AO2
KMHE 
26nm SW 
281253Z AUTO 28010KT 10SM CLR 19/13 A2960 RMK AO2 SLP015 T01890128 TSNO
KBKX 
34nm NE 
281256Z AUTO 19015KT 10SM CLR 21/13 A2958 RMK AO2 SLP016 T02060128
KHON 
37nm NW 
281255Z AUTO 26009KT 10SM CLR 17/12 A2959 RMK AO2 PRESRR SLP014 T01670122
TAF
KHON 
37nm NW 
281122Z 2812/2912 26006KT P6SM FEW250 FM281400 32008KT P6SM FEW200 FM281800 36007KT P6SM BKN180 FM282200 08007KT P6SM BKN150 PROB30 2903/2906 VRB25G40KT 3SM +TSRA BR BKN050CB FM290600 12008KT P6SM SCT080 BKN150
KFSD 
43nm SE 
281122Z 2812/2912 19012G21KT P6SM FEW250 FM281600 24009KT P6SM FEW250 FM290000 15010KT P6SM SCT180 FM290800 13009KT P6SM BKN030 PROB30 2908/2911 VRB25G40KT 3SM TSRA BR BKN015CB
NOTAMs
Click for the latest NOTAMs
NOTAMs are issued by the DoD/FAA and will open in a separate window not controlled by AirNav.

 

 
 

Would you like to see your business listed on this page?

 If your business provides an interesting product or service to pilots, flight crews, aircraft, or users of the Howard Municipal Airport, you should consider listing it here.  To start the listing process, click on the button below
 
Add a business
 

Other Pages about Howard Municipal Airport

Update a link
 
Copyright © AirNav, LLC. All rights reserved. Privacy Policy  Contact